Constantine, Kentucky
Current Conditions -  °F | °C
As of 2:58 PM on Thursday 18 Dec 2014 (Local Time) from KFTK Reporting Station
Overcast Overcast  
Wind Chill: 28°   Ceiling: 4900
Heat Index: 33°   Visibility: 10mi
Dew Point: 24°   Wind: 5mph
Humidity: 72%   Direction: NA
Pressure: 30.2"   Gusts: NA
Location:  37.8151°N, 86.3209°W
Report Text: KFTK 182058Z AUTO VRB04KT 10SM SCT020 OVC049 00/M04 A3020 RMK AO2 SLP237 T00031043
Loading
Personal Weather Stations






























Interactive Weather Map New forecast layout! Learn more

10-Day Weather Forecast

Advertisements
Track Severe Weather on mobile